Time;durP1;ratioP1;P1;durP2;ratioP2;P2;SDS_P1;SDS_P2;PMS_P1;PMS_P2;Temp;Humidity;BMP_temperature;BMP_pressure;BME280_temperature;BME280_humidity;BME280_pressure;Samples;Min_cycle;Max_cycle;Signal;HPM_P1;HPM_P2
2024/04/12 00:00:47;;;;;;;;;;;8.90;1.00;;;;;;5395617;26;19956;-77
2024/04/12 00:03:17;;;;;;;;;;;8.90;1.00;;;;;;5417635;26;20318;-77
2024/04/12 00:05:47;;;;;;;;;;;8.90;1.00;;;;;;5419554;26;20373;-77
2024/04/12 00:08:14;;;;;;;;;;;8.90;1.00;;;;;;5418402;26;19972;-77
2024/04/12 00:10:52;;;;;;;;;;;8.90;1.00;;;;;;5419298;26;20000;-77
2024/04/12 00:13:18;;;;;;;;;;;8.80;1.00;;;;;;5419310;26;19929;-77
2024/04/12 00:15:44;;;;;;;;;;;8.80;1.00;;;;;;5419877;26;19929;-77
2024/04/12 00:18:15;;;;;;;;;;;8.80;1.00;;;;;;5415080;26;20384;-77
2024/04/12 00:20:45;;;;;;;;;;;8.70;1.00;;;;;;5402744;26;19936;-77
2024/04/12 00:23:12;;;;;;;;;;;8.70;1.00;;;;;;5418816;26;19937;-77
2024/04/12 00:25:39;;;;;;;;;;;8.70;1.00;;;;;;5419320;26;19929;-77
2024/04/12 00:28:05;;;;;;;;;;;8.60;1.00;;;;;;5419444;26;19936;-77
2024/04/12 00:30:41;;;;;;;;;;;8.60;1.00;;;;;;5424390;26;19929;-78
2024/04/12 00:33:10;;;;;;;;;;;8.60;1.00;;;;;;5418914;26;19936;-79
2024/04/12 00:35:40;;;;;;;;;;;8.60;1.00;;;;;;5418990;26;20289;-78
2024/04/12 00:38:11;;;;;;;;;;;8.60;1.00;;;;;;5418730;26;20300;-79
2024/04/12 00:40:45;;;;;;;;;;;8.60;1.00;;;;;;5419044;26;20372;-79
2024/04/12 00:43:20;;;;;;;;;;;8.50;1.00;;;;;;5396962;26;19929;-79
2024/04/12 00:45:48;;;;;;;;;;;8.50;1.00;;;;;;5418904;26;19929;-77
2024/04/12 00:48:15;;;;;;;;;;;8.50;1.00;;;;;;5418828;26;19929;-77
2024/04/12 00:50:44;;;;;;;;;;;8.40;1.00;;;;;;5418615;26;20005;-77
2024/04/12 00:53:11;;;;;;;;;;;8.40;1.00;;;;;;5418759;26;19929;-77
2024/04/12 00:55:38;;;;;;;;;;;8.50;1.00;;;;;;5418734;26;20055;-77
2024/04/12 00:58:10;;;;;;;;;;;8.50;1.00;;;;;;5406787;26;19929;-77
2024/04/12 01:00:36;;;;;;;;;;;8.50;1.00;;;;;;5414735;26;19929;-77
2024/04/12 01:03:05;;;;;;;;;;;8.50;1.00;;;;;;5418580;26;20426;-77
2024/04/12 01:05:35;;;;;;;;;;;8.40;1.00;;;;;;5418436;26;20261;-77
2024/04/12 01:08:01;;;;;;;;;;;8.40;1.00;;;;;;5418401;26;19941;-77
2024/04/12 01:10:30;;;;;;;;;;;8.30;1.00;;;;;;5418284;26;19936;-77
2024/04/12 01:12:56;;;;;;;;;;;8.30;1.00;;;;;;5430906;26;19935;-77
2024/04/12 01:15:23;;;;;;;;;;;8.30;1.00;;;;;;5419177;26;19928;-77
2024/04/12 01:17:49;;;;;;;;;;;8.30;1.00;;;;;;5417471;26;19929;-77
2024/04/12 01:20:16;;;;;;;;;;;8.30;1.00;;;;;;5416183;26;19929;-77
2024/04/12 01:22:45;;;;;;;;;;;8.30;1.00;;;;;;5429071;26;19929;-77
2024/04/12 01:25:21;;;;;;;;;;;8.30;1.00;;;;;;5395247;26;19936;-77
2024/04/12 01:27:47;;;;;;;;;;;8.30;1.00;;;;;;5393913;26;19941;-77
2024/04/12 01:30:13;;;;;;;;;;;8.30;1.00;;;;;;5418539;26;19929;-78
2024/04/12 01:32:38;;;;;;;;;;;8.30;1.00;;;;;;5424042;26;19936;-78
2024/04/12 01:35:05;;;;;;;;;;;8.10;1.00;;;;;;5418541;26;20318;-78
2024/04/12 01:37:34;;;;;;;;;;;8.10;1.00;;;;;;5426423;26;20020;-78
2024/04/12 01:40:03;;;;;;;;;;;8.10;1.00;;;;;;5444290;26;20200;-78
2024/04/12 01:42:37;;;;;;;;;;;8.10;1.00;;;;;;5424850;26;19929;-78
2024/04/12 01:45:16;;;;;;;;;;;8.00;1.00;;;;;;5416760;26;20332;-77
2024/04/12 01:47:51;;;;;;;;;;;8.00;1.00;;;;;;5416248;26;20008;-77
2024/04/12 01:50:22;;;;;;;;;;;8.00;1.00;;;;;;5417785;26;19936;-77
2024/04/12 01:52:54;;;;;;;;;;;7.90;1.00;;;;;;5395221;26;19929;-78
2024/04/12 01:55:20;;;;;;;;;;;7.90;1.00;;;;;;5415788;26;19929;-77
2024/04/12 01:57:51;;;;;;;;;;;7.90;1.00;;;;;;5417791;26;20019;-77
2024/04/12 02:00:17;;;;;;;;;;;7.80;1.00;;;;;;5418237;26;19979;-79
2024/04/12 02:02:43;;;;;;;;;;;7.80;1.00;;;;;;5417519;26;19941;-78
2024/04/12 02:05:09;;;;;;;;;;;7.80;1.00;;;;;;5441643;26;19935;-78
2024/04/12 02:07:44;;;;;;;;;;;7.80;1.00;;;;;;5436794;26;19929;-78
2024/04/12 02:10:11;;;;;;;;;;;7.80;1.00;;;;;;5406377;26;20374;-78
2024/04/12 02:12:40;;;;;;;;;;;7.80;1.00;;;;;;5417653;26;19929;-78
2024/04/12 02:15:25;;;;;;;;;;;7.70;1.00;;;;;;5416132;26;19937;-78
2024/04/12 02:17:57;;;;;;;;;;;7.70;1.00;;;;;;5417141;26;19933;-79
2024/04/12 02:20:36;;;;;;;;;;;7.70;1.00;;;;;;5394192;26;19929;-78
2024/04/12 02:23:04;;;;;;;;;;;7.70;1.00;;;;;;5417000;26;19929;-78
2024/04/12 02:25:58;;;;;;;;;;;7.60;1.00;;;;;;5417454;26;19956;-78
2024/04/12 02:28:26;;;;;;;;;;;7.60;1.00;;;;;;5417135;26;20391;-78
2024/04/12 02:31:00;;;;;;;;;;;7.60;1.00;;;;;;5418296;26;19936;-77
2024/04/12 02:33:32;;;;;;;;;;;7.50;1.00;;;;;;5421069;26;20006;-77
2024/04/12 02:35:59;;;;;;;;;;;7.50;1.00;;;;;;5434967;26;19935;-77
2024/04/12 02:38:39;;;;;;;;;;;7.50;1.00;;;;;;5418717;26;19929;-77
2024/04/12 02:41:06;;;;;;;;;;;7.40;1.00;;;;;;5416758;26;20264;-77
2024/04/12 02:44:01;;;;;;;;;;;7.40;1.00;;;;;;5420789;26;19929;-77
2024/04/12 02:46:53;;;;;;;;;;;7.40;1.00;;;;;;5399798;26;19961;-78
2024/04/12 02:49:21;;;;;;;;;;;7.40;1.00;;;;;;5439759;26;19928;-77
2024/04/12 02:51:47;;;;;;;;;;;7.30;1.00;;;;;;5427711;26;20265;-77
2024/04/12 02:54:16;;;;;;;;;;;7.30;1.00;;;;;;5420378;26;19939;-77
2024/04/12 02:56:45;;;;;;;;;;;7.30;1.00;;;;;;5420663;26;19936;-77
2024/04/12 02:59:13;;;;;;;;;;;7.30;1.00;;;;;;5396583;26;19929;-77
2024/04/12 03:01:45;;;;;;;;;;;7.30;1.00;;;;;;5420551;26;19936;-78
2024/04/12 03:04:11;;;;;;;;;;;7.30;1.00;;;;;;5420520;26;19936;-78
2024/04/12 03:06:38;;;;;;;;;;;7.30;1.00;;;;;;5420581;26;19940;-78
2024/04/12 03:09:11;;;;;;;;;;;7.30;1.00;;;;;;5441337;26;19998;-78
2024/04/12 03:11:37;;;;;;;;;;;7.30;1.00;;;;;;5416096;26;19937;-78
2024/04/12 03:14:09;;;;;;;;;;;7.30;1.00;;;;;;5412594;26;19929;-78
2024/04/12 03:16:43;;;;;;;;;;;7.30;1.00;;;;;;5413187;26;19930;-78
2024/04/12 03:19:10;;;;;;;;;;;7.40;1.00;;;;;;5404021;26;19940;-78
2024/04/12 03:21:37;;;;;;;;;;;7.40;1.00;;;;;;5415917;26;19940;-78
2024/04/12 03:24:04;;;;;;;;;;;7.40;1.00;;;;;;5419942;26;19929;-77
2024/04/12 03:26:30;;;;;;;;;;;7.40;1.00;;;;;;5418274;26;19936;-77
2024/04/12 03:28:58;;;;;;;;;;;7.40;1.00;;;;;;5421521;26;19954;-77
2024/04/12 03:31:27;;;;;;;;;;;7.40;1.00;;;;;;5420041;26;19936;-77
2024/04/12 03:34:00;;;;;;;;;;;7.30;1.00;;;;;;5418206;26;19937;-77
2024/04/12 03:36:26;;;;;;;;;;;7.30;1.00;;;;;;5394572;26;20360;-77
2024/04/12 03:41:46;;;;;;;;;;;7.40;1.00;;;;;;5402413;26;19998;-77
2024/04/12 03:44:13;;;;;;;;;;;7.30;1.00;;;;;;5419096;26;19941;-77
2024/04/12 03:47:18;;;;;;;;;;;7.20;1.00;;;;;;5419415;26;19929;-78
2024/04/12 03:49:47;;;;;;;;;;;7.20;1.00;;;;;;5417400;26;20051;-77
2024/04/12 03:52:19;;;;;;;;;;;7.20;1.00;;;;;;5452390;26;19932;-78
2024/04/12 03:54:45;;;;;;;;;;;7.10;1.00;;;;;;5444261;26;19940;-78
2024/04/12 03:57:27;;;;;;;;;;;7.10;1.00;;;;;;5422536;26;19928;-77
2024/04/12 03:59:57;;;;;;;;;;;7.00;1.00;;;;;;5452231;26;19932;-76
2024/04/12 04:02:24;;;;;;;;;;;7.10;1.00;;;;;;5452379;26;19929;-78
2024/04/12 04:05:13;;;;;;;;;;;7.10;1.00;;;;;;5452178;26;19932;-78
2024/04/12 04:07:41;;;;;;;;;;;7.10;1.00;;;;;;5452263;26;19941;-78
2024/04/12 04:10:15;;;;;;;;;;;7.00;1.00;;;;;;5451920;26;19978;-78
2024/04/12 04:12:45;;;;;;;;;;;7.00;1.00;;;;;;5452632;26;19936;-78
2024/04/12 04:15:15;;;;;;;;;;;6.90;1.00;;;;;;5451964;26;19936;-79
2024/04/12 04:17:47;;;;;;;;;;;6.90;1.00;;;;;;5452271;26;20327;-78
2024/04/12 04:20:14;;;;;;;;;;;6.80;1.00;;;;;;5463232;26;20002;-78
2024/04/12 04:22:39;;;;;;;;;;;6.80;1.00;;;;;;5419044;26;19929;-77
2024/04/12 04:25:10;;;;;;;;;;;6.70;1.00;;;;;;5419487;26;20358;-78
2024/04/12 04:27:35;;;;;;;;;;;6.70;1.00;;;;;;5428809;26;19937;-77
2024/04/12 04:30:01;;;;;;;;;;;6.70;1.00;;;;;;5419145;26;19932;-77
2024/04/12 04:32:27;;;;;;;;;;;6.70;1.00;;;;;;5419442;26;19935;-78
2024/04/12 04:35:05;;;;;;;;;;;6.60;1.00;;;;;;5419022;26;19998;-77
2024/04/12 04:37:34;;;;;;;;;;;6.60;1.00;;;;;;5424586;26;19929;-77
2024/04/12 04:40:00;;;;;;;;;;;6.70;1.00;;;;;;5411572;26;19942;-76
2024/04/12 04:42:26;;;;;;;;;;;6.60;1.00;;;;;;5404300;26;19930;-76
2024/04/12 04:45:09;;;;;;;;;;;6.60;1.00;;;;;;5411193;26;19942;-76
2024/04/12 04:47:35;;;;;;;;;;;6.60;1.00;;;;;;5410443;26;19941;-78
2024/04/12 04:50:00;;;;;;;;;;;6.60;1.00;;;;;;5392863;26;20361;-77
2024/04/12 04:52:34;;;;;;;;;;;6.60;1.00;;;;;;5419982;26;19937;-78
2024/04/12 04:55:00;;;;;;;;;;;6.60;1.00;;;;;;5418644;26;19929;-77
2024/04/12 04:57:29;;;;;;;;;;;6.60;1.00;;;;;;5414485;26;19929;-77
2024/04/12 05:00:06;;;;;;;;;;;6.50;1.00;;;;;;5410493;26;20261;-78
2024/04/12 05:02:35;;;;;;;;;;;6.60;1.00;;;;;;5418038;26;20268;-78
2024/04/12 05:05:04;;;;;;;;;;;6.50;1.00;;;;;;5419233;26;19998;-78
2024/04/12 05:07:34;;;;;;;;;;;6.50;1.00;;;;;;5414050;26;19929;-78
2024/04/12 05:10:08;;;;;;;;;;;6.50;1.00;;;;;;5405455;26;19929;-78
2024/04/12 05:12:45;;;;;;;;;;;6.60;1.00;;;;;;5423354;26;19929;-77
2024/04/12 05:15:31;;;;;;;;;;;6.60;1.00;;;;;;5418069;26;19932;-77
2024/04/12 05:18:03;;;;;;;;;;;6.60;1.00;;;;;;5417400;26;19939;-76
2024/04/12 05:20:38;;;;;;;;;;;6.60;1.00;;;;;;5397488;26;19929;-76
2024/04/12 05:23:14;;;;;;;;;;;6.60;1.00;;;;;;5410826;26;19929;-77
2024/04/12 05:25:40;;;;;;;;;;;6.60;1.00;;;;;;5403208;26;20264;-77
2024/04/12 05:28:09;;;;;;;;;;;6.60;1.00;;;;;;5427422;26;20372;-77
2024/04/12 05:30:40;;;;;;;;;;;6.60;1.00;;;;;;5424431;26;19935;-77
2024/04/12 05:33:06;;;;;;;;;;;6.80;1.00;;;;;;5416359;26;19929;-77
2024/04/12 05:35:34;;;;;;;;;;;6.80;1.00;;;;;;5418279;26;19953;-77
2024/04/12 05:38:10;;;;;;;;;;;6.80;1.00;;;;;;5419334;26;19961;-77
2024/04/12 05:40:57;;;;;;;;;;;6.90;1.00;;;;;;5417973;26;19929;-77
2024/04/12 05:43:22;;;;;;;;;;;7.00;1.00;;;;;;5399333;26;19929;-76
2024/04/12 05:45:53;;;;;;;;;;;7.10;1.00;;;;;;5417902;26;20318;-77
2024/04/12 05:48:19;;;;;;;;;;;7.20;1.00;;;;;;5418821;26;19933;-78
2024/04/12 05:50:48;;;;;;;;;;;7.30;1.00;;;;;;5420781;26;20005;-78
2024/04/12 05:53:14;;;;;;;;;;;7.40;1.00;;;;;;5434124;26;19929;-78
2024/04/12 05:55:52;;;;;;;;;;;7.50;1.00;;;;;;5408279;26;19936;-77
2024/04/12 05:58:18;;;;;;;;;;;7.60;1.00;;;;;;5412088;26;19937;-78
2024/04/12 06:00:47;;;;;;;;;;;7.70;1.00;;;;;;5420325;26;19944;-77
2024/04/12 06:03:14;;;;;;;;;;;7.80;1.00;;;;;;5435423;26;19929;-78
2024/04/12 06:05:45;;;;;;;;;;;7.90;1.00;;;;;;5412076;26;20368;-78
2024/04/12 06:08:15;;;;;;;;;;;8.00;1.00;;;;;;5419356;26;19937;-78
2024/04/12 06:10:46;;;;;;;;;;;8.10;1.00;;;;;;5390035;26;19942;-78
2024/04/12 06:13:12;;;;;;;;;;;8.10;1.00;;;;;;5419445;26;19935;-78
2024/04/12 06:15:38;;;;;;;;;;;8.30;1.00;;;;;;5421155;26;19941;-79
2024/04/12 06:18:18;;;;;;;;;;;8.30;1.00;;;;;;5421206;26;19929;-77
2024/04/12 06:21:10;;;;;;;;;;;8.50;1.00;;;;;;5402404;26;19930;-77
2024/04/12 06:23:39;;;;;;;;;;;8.70;1.00;;;;;;5401389;26;19929;-77
2024/04/12 06:26:05;;;;;;;;;;;8.90;1.00;;;;;;5416909;26;19929;-77
2024/04/12 06:28:47;;;;;;;;;;;8.90;1.00;;;;;;5419527;26;19997;-77
2024/04/12 06:31:20;;;;;;;;;;;9.10;1.00;;;;;;5418577;26;19957;-78
2024/04/12 06:33:51;;;;;;;;;;;9.40;1.00;;;;;;5422255;26;19929;-77
2024/04/12 06:36:24;;;;;;;;;;;9.50;1.00;;;;;;5428739;26;19945;-77
2024/04/12 06:38:55;;;;;;;;;;;9.70;1.00;;;;;;5419454;26;20476;-78
2024/04/12 06:41:23;;;;;;;;;;;9.80;1.00;;;;;;5418683;26;20268;-77
2024/04/12 06:43:54;;;;;;;;;;;10.00;1.00;;;;;;5416341;26;19941;-77
2024/04/12 06:46:20;;;;;;;;;;;10.20;1.00;;;;;;5389555;26;19936;-77
2024/04/12 06:48:51;;;;;;;;;;;10.30;1.00;;;;;;5407110;26;20260;-78
2024/04/12 06:51:17;;;;;;;;;;;10.60;1.00;;;;;;5406740;26;19965;-78
2024/04/12 06:53:45;;;;;;;;;;;10.70;1.00;;;;;;5412395;26;20010;-77
2024/04/12 06:56:15;;;;;;;;;;;10.80;1.00;;;;;;5419094;26;19993;-77
2024/04/12 06:58:48;;;;;;;;;;;11.00;1.00;;;;;;5409972;26;19941;-77
2024/04/12 07:01:15;;;;;;;;;;;11.20;1.00;;;;;;5405930;26;19929;-77
2024/04/12 07:03:45;;;;;;;;;;;11.40;1.00;;;;;;5431057;26;19937;-77
2024/04/12 07:06:25;;;;;;;;;;;11.40;1.00;;;;;;5419914;26;19936;-77
2024/04/12 07:08:51;;;;;;;;;;;11.70;1.00;;;;;;5420537;26;19937;-77
2024/04/12 07:11:17;;;;;;;;;;;11.80;1.00;;;;;;5398955;26;19937;-77
2024/04/12 07:13:49;;;;;;;;;;;12.00;1.00;;;;;;5416788;26;19929;-77
2024/04/12 07:16:18;;;;;;;;;;;12.00;1.00;;;;;;5427370;26;20005;-77
2024/04/12 07:19:09;;;;;;;;;;;12.20;1.00;;;;;;5420102;26;19929;-77
2024/04/12 07:21:40;;;;;;;;;;;12.40;1.00;;;;;;5408773;26;19935;-77
2024/04/12 07:24:27;;;;;;;;;;;12.50;1.00;;;;;;5419575;26;19929;-77
2024/04/12 07:27:15;;;;;;;;;;;12.60;1.00;;;;;;5419957;26;19929;-77
2024/04/12 07:29:46;;;;;;;;;;;12.80;1.00;;;;;;5421679;26;20019;-77
2024/04/12 07:32:16;;;;;;;;;;;12.90;1.00;;;;;;5455695;26;19928;-77
2024/04/12 07:34:48;;;;;;;;;;;13.00;1.00;;;;;;5449955;26;19929;-77
2024/04/12 07:37:26;;;;;;;;;;;13.10;1.00;;;;;;5416831;26;19937;-77
2024/04/12 07:40:15;;;;;;;;;;;13.30;1.00;;;;;;5385299;26;20373;-76
2024/04/12 07:42:39;;;;;;;;;;;13.30;1.00;;;;;;5412319;26;19941;-76
2024/04/12 07:45:25;;;;;;;;;;;13.50;1.00;;;;;;5417221;26;19969;-78
2024/04/12 07:47:52;;;;;;;;;;;13.90;1.00;;;;;;5417156;26;19936;-77
2024/04/12 07:50:31;;;;;;;;;;;13.90;1.00;;;;;;5417741;26;19998;-77
2024/04/12 07:53:21;;;;;;;;;;;14.00;1.00;;;;;;5383460;26;19936;-76
2024/04/12 07:56:14;;;;;;;;;;;14.10;1.00;;;;;;5430559;26;20384;-76
2024/04/12 07:59:10;;;;;;;;;;;14.30;1.00;;;;;;5409412;26;19941;-77
2024/04/12 08:01:37;;;;;;;;;;;14.60;1.00;;;;;;5413021;26;19933;-76
2024/04/12 08:04:15;;;;;;;;;;;14.60;1.00;;;;;;5419698;26;19929;-76
2024/04/12 08:11:59;;;;;;;;;;;15.00;1.00;;;;;;5448799;26;19936;-76
2024/04/12 08:14:28;;;;;;;;;;;15.40;1.00;;;;;;5440057;26;20418;-76
2024/04/12 08:17:14;;;;;;;;;;;15.40;1.00;;;;;;5451567;26;19997;-77
2024/04/12 08:19:45;;;;;;;;;;;15.50;1.00;;;;;;5413036;26;19992;-77
2024/04/12 08:22:25;;;;;;;;;;;15.50;1.00;;;;;;5419837;26;19933;-76
2024/04/12 08:24:58;;;;;;;;;;;15.50;1.00;;;;;;5398458;26;19928;-77
2024/04/12 08:27:24;;;;;;;;;;;15.60;1.00;;;;;;5432130;26;19932;-77
2024/04/12 08:29:52;;;;;;;;;;;15.70;1.00;;;;;;5428164;26;19929;-77
2024/04/12 08:32:27;;;;;;;;;;;15.90;1.00;;;;;;5442274;26;19990;-77
2024/04/12 08:34:58;;;;;;;;;;;15.90;1.00;;;;;;5390242;26;20048;-77
2024/04/12 08:37:37;;;;;;;;;;;16.00;1.00;;;;;;5420140;26;19932;-76
2024/04/12 08:40:08;;;;;;;;;;;16.00;1.00;;;;;;5410035;26;19929;-79
2024/04/12 08:42:47;;;;;;;;;;;16.20;1.00;;;;;;5450479;26;19936;-77
2024/04/12 08:45:18;;;;;;;;;;;16.30;1.00;;;;;;5422810;26;19983;-76
2024/04/12 08:47:54;;;;;;;;;;;16.40;1.00;;;;;;5451870;26;20408;-76
2024/04/12 08:50:24;;;;;;;;;;;16.40;1.00;;;;;;5418680;26;19929;-76
2024/04/12 08:52:52;;;;;;;;;;;16.50;1.00;;;;;;5443980;26;19929;-76
2024/04/12 08:55:23;;;;;;;;;;;16.50;1.00;;;;;;5415172;26;19936;-76
2024/04/12 08:58:06;;;;;;;;;;;16.50;1.00;;;;;;5421180;26;19929;-77
2024/04/12 09:00:32;;;;;;;;;;;16.50;1.00;;;;;;5411595;26;19929;-79
2024/04/12 09:02:59;;;;;;;;;;;16.80;1.00;;;;;;5408841;26;19933;-78
2024/04/12 09:05:25;;;;;;;;;;;17.00;1.00;;;;;;5405370;26;19937;-78
2024/04/12 09:07:51;;;;;;;;;;;17.10;1.00;;;;;;5413621;26;19929;-78
2024/04/12 09:10:20;;;;;;;;;;;17.30;1.00;;;;;;5418451;26;19940;-78
2024/04/12 09:12:46;;;;;;;;;;;17.50;1.00;;;;;;5421115;26;19933;-78
2024/04/12 09:15:23;;;;;;;;;;;17.70;1.00;;;;;;5439482;26;19998;-78
2024/04/12 09:17:58;;;;;;;;;;;17.70;1.00;;;;;;5419050;26;20400;-78
2024/04/12 09:20:31;;;;;;;;;;;17.90;1.00;;;;;;5405600;26;19998;-83
2024/04/12 09:23:16;;;;;;;;;;;18.00;1.00;;;;;;5414951;26;19937;-86
2024/04/12 09:25:46;;;;;;;;;;;18.20;1.00;;;;;;5418552;26;19935;-80
2024/04/12 09:28:17;;;;;;;;;;;18.20;1.00;;;;;;5429431;26;19941;-84
2024/04/12 09:33:31;;;;;;;;;;;18.60;1.00;;;;;;5404576;26;19935;-81
2024/04/12 09:36:04;;;;;;;;;;;18.70;1.00;;;;;;5426937;26;19929;-80
2024/04/12 09:38:31;;;;;;;;;;;18.50;1.00;;;;;;5426776;26;19944;-81
2024/04/12 09:41:03;;;;;;;;;;;18.70;1.00;;;;;;5428894;26;19929;-80
2024/04/12 09:43:31;;;;;;;;;;;18.90;1.00;;;;;;5418202;26;19929;-81
2024/04/12 09:46:08;;;;;;;;;;;18.80;1.00;;;;;;5417804;26;20268;-81
2024/04/12 10:39:12;;;;;;;;;;;20.10;1.00;;;;;;5420559;26;20280;-77
2024/04/12 10:41:38;;;;;;;;;;;19.70;1.00;;;;;;5431061;26;20383;-77
2024/04/12 10:44:05;;;;;;;;;;;19.70;1.00;;;;;;5417852;26;19936;-77
2024/04/12 10:46:33;;;;;;;;;;;19.40;1.00;;;;;;5434833;26;19937;-77
2024/04/12 10:49:04;;;;;;;;;;;19.40;1.00;;;;;;5414566;26;20369;-77
2024/04/12 10:51:30;;;;;;;;;;;19.20;1.00;;;;;;5421796;26;19928;-78
2024/04/12 10:53:57;;;;;;;;;;;19.00;1.00;;;;;;5429944;26;19962;-77
2024/04/12 10:56:22;;;;;;;;;;;18.90;1.00;;;;;;5443040;26;19928;-77
2024/04/12 10:59:26;;;;;;;;;;;18.70;1.00;;;;;;5420605;26;19958;-87
2024/04/12 11:01:59;;;;;;;;;;;18.70;1.00;;;;;;5418253;26;19998;-83
2024/04/12 11:05:05;;;;;;;;;;;18.70;1.00;;;;;;5416031;26;20313;-83
2024/04/12 11:07:16;;;;;;;;;;;18.80;1.00;;;;;;5423822;26;19936;-85
2024/04/12 11:09:43;;;;;;;;;;;19.00;1.00;;;;;;5418209;26;19933;-80
2024/04/12 11:12:16;;;;;;;;;;;19.10;1.00;;;;;;5414534;26;20256;-83
2024/04/12 11:14:50;;;;;;;;;;;19.40;1.00;;;;;;5385248;26;19929;-84
2024/04/12 11:31:28;;;;;;;;;;;21.00;1.00;;;;;;5407794;26;19940;-80
2024/04/12 11:34:10;;;;;;;;;;;21.10;1.00;;;;;;5397344;26;20260;-80
2024/04/12 11:36:40;;;;;;;;;;;21.40;1.00;;;;;;5420050;26;19930;-78
2024/04/12 11:39:23;;;;;;;;;;;21.60;1.00;;;;;;5419745;26;19964;-79
2024/04/12 11:41:55;;;;;;;;;;;21.50;1.00;;;;;;5417327;26;19936;-77
2024/04/12 11:44:21;;;;;;;;;;;21.50;1.00;;;;;;5419310;26;19969;-78
2024/04/12 11:46:48;;;;;;;;;;;21.50;1.00;;;;;;5419666;26;19937;-78
2024/04/12 11:49:16;;;;;;;;;;;21.40;1.00;;;;;;5419476;26;19975;-78
2024/04/12 11:51:48;;;;;;;;;;;21.00;1.00;;;;;;5415474;26;20277;-80
2024/04/12 11:54:13;;;;;;;;;;;20.90;1.00;;;;;;5416969;26;19941;-80
2024/04/12 11:56:40;;;;;;;;;;;21.00;1.00;;;;;;5420689;26;20033;-82
2024/04/12 11:59:09;;;;;;;;;;;21.50;1.00;;;;;;5407115;26;20024;-81
2024/04/12 12:01:52;;;;;;;;;;;21.70;1.00;;;;;;5422094;26;19937;-81
2024/04/12 12:04:19;;;;;;;;;;;22.00;1.00;;;;;;5427913;26;19929;-80
2024/04/12 12:06:46;;;;;;;;;;;22.10;1.00;;;;;;5446172;26;19937;-78
2024/04/12 12:09:20;;;;;;;;;;;22.20;1.00;;;;;;5419687;26;19968;-78
2024/04/12 12:11:49;;;;;;;;;;;22.30;1.00;;;;;;5419355;26;20281;-77
2024/04/12 12:14:15;;;;;;;;;;;22.20;1.00;;;;;;5419205;26;19941;-76
2024/04/12 12:16:47;;;;;;;;;;;22.30;1.00;;;;;;5415458;26;19933;-76
2024/04/12 12:19:12;;;;;;;;;;;22.30;1.00;;;;;;5415260;26;20253;-75
2024/04/12 12:21:38;;;;;;;;;;;22.40;1.00;;;;;;5394697;26;19936;-77
2024/04/12 12:24:22;;;;;;;;;;;22.60;1.00;;;;;;5419333;26;19936;-81
2024/04/12 12:26:49;;;;;;;;;;;22.60;1.00;;;;;;5419193;26;19929;-75
2024/04/12 12:29:28;;;;;;;;;;;22.70;1.00;;;;;;5453247;26;19928;-75
2024/04/12 12:31:58;;;;;;;;;;;22.50;1.00;;;;;;5394849;26;19941;-78
2024/04/12 12:34:23;;;;;;;;;;;22.40;1.00;;;;;;5413208;26;19953;-76
2024/04/12 12:36:50;;;;;;;;;;;22.40;1.00;;;;;;5418822;26;19937;-73
2024/04/12 12:39:18;;;;;;;;;;;22.20;1.00;;;;;;5417505;26;20392;-71
2024/04/12 12:41:45;;;;;;;;;;;22.00;1.00;;;;;;5417981;26;19929;-68
2024/04/12 12:44:17;;;;;;;;;;;21.70;1.00;;;;;;5417571;26;19937;-76
2024/04/12 12:46:43;;;;;;;;;;;21.80;1.00;;;;;;5418682;26;19933;-75
2024/04/12 12:49:09;;;;;;;;;;;21.70;1.00;;;;;;5416469;26;19939;-65
2024/04/12 12:51:47;;;;;;;;;;;21.60;1.00;;;;;;5394094;26;19933;-84
2024/04/12 12:54:13;;;;;;;;;;;21.50;1.00;;;;;;5420608;26;19965;-78
2024/04/12 12:56:40;;;;;;;;;;;21.80;1.00;;;;;;5419363;26;20361;-79
2024/04/12 12:59:06;;;;;;;;;;;21.90;1.00;;;;;;5418672;26;19945;-79
2024/04/12 13:01:41;;;;;;;;;;;22.30;1.00;;;;;;5417999;26;19929;-79
2024/04/12 13:04:07;;;;;;;;;;;22.90;1.00;;;;;;5418599;26;19939;-79
2024/04/12 13:06:37;;;;;;;;;;;22.90;1.00;;;;;;5418821;26;19929;-77
2024/04/12 13:09:05;;;;;;;;;;;23.10;1.00;;;;;;5406500;26;20265;-77
2024/04/12 13:11:42;;;;;;;;;;;22.90;1.00;;;;;;5415376;26;19935;-77
2024/04/12 13:14:10;;;;;;;;;;;23.00;1.00;;;;;;5418319;26;20260;-80
2024/04/12 13:16:41;;;;;;;;;;;23.00;1.00;;;;;;5419954;26;19933;-76
2024/04/12 13:19:08;;;;;;;;;;;23.20;1.00;;;;;;5409521;26;19940;-76
2024/04/12 13:21:34;;;;;;;;;;;23.10;1.00;;;;;;5422803;26;19957;-79
2024/04/12 13:24:00;;;;;;;;;;;23.10;1.00;;;;;;5443640;26;19940;-79
2024/04/12 13:26:43;;;;;;;;;;;22.80;1.00;;;;;;5433943;26;19996;-79
2024/04/12 13:29:10;;;;;;;;;;;22.60;1.00;;;;;;5447895;26;20379;-79
2024/04/12 13:31:41;;;;;;;;;;;22.70;1.00;;;;;;5434775;26;19929;-79
2024/04/12 13:34:09;;;;;;;;;;;22.90;1.00;;;;;;5412396;26;19929;-79
2024/04/12 13:36:34;;;;;;;;;;;23.20;1.00;;;;;;5436914;26;19936;-79
2024/04/12 13:39:00;;;;;;;;;;;23.50;1.00;;;;;;5407958;26;19929;-80
2024/04/12 13:41:26;;;;;;;;;;;24.10;1.00;;;;;;5436262;26;19936;-79
2024/04/12 13:43:52;;;;;;;;;;;24.10;1.00;;;;;;5426492;26;19936;-78
2024/04/12 13:50:54;;;;;;;;;;;24.10;1.00;;;;;;5432588;26;19998;-78
2024/04/12 13:52:14;;;;;;;;;;;24.30;1.00;;;;;;5442383;26;20380;-76
2024/04/12 13:54:41;;;;;;;;;;;24.50;1.00;;;;;;5418118;26;19933;-76
2024/04/12 13:57:09;;;;;;;;;;;24.50;1.00;;;;;;5428722;26;20412;-76
2024/04/12 13:59:40;;;;;;;;;;;24.30;1.00;;;;;;5434474;26;19936;-76
2024/04/12 14:02:10;;;;;;;;;;;24.10;1.00;;;;;;5412048;26;19997;-76
2024/04/12 14:04:38;;;;;;;;;;;23.70;1.00;;;;;;5433591;26;19998;-76
2024/04/12 14:07:04;;;;;;;;;;;23.70;1.00;;;;;;5424231;26;19944;-78
2024/04/12 14:09:30;;;;;;;;;;;23.20;1.00;;;;;;5418097;26;20361;-78
2024/04/12 14:11:56;;;;;;;;;;;22.10;1.00;;;;;;5432931;26;19928;-78
2024/04/12 14:14:23;;;;;;;;;;;22.20;1.00;;;;;;5431967;26;19931;-78
2024/04/12 14:16:52;;;;;;;;;;;22.10;1.00;;;;;;5433223;26;19962;-78
2024/04/12 14:19:18;;;;;;;;;;;22.20;1.00;;;;;;5412734;26;19936;-78
2024/04/12 14:21:48;;;;;;;;;;;22.30;1.00;;;;;;5419555;26;19929;-76
2024/04/12 14:26:59;;;;;;;;;;;23.00;1.00;;;;;;5423766;26;19936;-76
2024/04/12 14:29:26;;;;;;;;;;;23.00;1.00;;;;;;5420673;26;19928;-76
2024/04/12 14:32:10;;;;;;;;;;;23.00;1.00;;;;;;5419503;26;19929;-76
2024/04/12 14:34:36;;;;;;;;;;;23.10;1.00;;;;;;5419099;26;19964;-76
2024/04/12 14:37:03;;;;;;;;;;;23.20;1.00;;;;;;5420365;26;19936;-78
2024/04/12 14:39:28;;;;;;;;;;;23.20;1.00;;;;;;5420738;26;19961;-78
2024/04/12 14:42:00;;;;;;;;;;;23.30;1.00;;;;;;5420597;26;19929;-78
2024/04/12 14:44:27;;;;;;;;;;;23.40;1.00;;;;;;5420670;26;19929;-79
2024/04/12 14:46:58;;;;;;;;;;;23.00;1.00;;;;;;5418760;26;19929;-78
2024/04/12 14:49:34;;;;;;;;;;;23.20;1.00;;;;;;5420777;26;19929;-77
2024/04/12 14:52:11;;;;;;;;;;;23.30;1.00;;;;;;5420330;26;19933;-76
2024/04/12 14:54:40;;;;;;;;;;;23.30;1.00;;;;;;5404323;26;19929;-76
2024/04/12 14:57:09;;;;;;;;;;;22.90;1.00;;;;;;5420336;26;19998;-76
2024/04/12 14:59:41;;;;;;;;;;;22.80;1.00;;;;;;5420268;26;19929;-76
2024/04/12 15:02:07;;;;;;;;;;;23.10;1.00;;;;;;5397727;26;19929;-77
2024/04/12 15:48:56;;;;;;;;;;;23.40;1.00;;;;;;5419861;26;20323;-78
2024/04/12 15:51:26;;;;;;;;;;;23.10;1.00;;;;;;5419466;26;19998;-78
2024/04/12 15:53:58;;;;;;;;;;;22.70;1.00;;;;;;5417422;26;20368;-78
2024/04/12 16:12:59;;;;;;;;;;;24.20;1.00;;;;;;5419371;26;20264;-80
2024/04/12 16:15:29;;;;;;;;;;;24.60;1.00;;;;;;5436537;26;20001;-81
2024/04/12 16:17:54;;;;;;;;;;;24.60;1.00;;;;;;5419074;26;19936;-81
2024/04/12 16:20:20;;;;;;;;;;;24.10;1.00;;;;;;5419664;26;19929;-81
2024/04/12 16:22:48;;;;;;;;;;;23.50;1.00;;;;;;5419601;26;19929;-78
2024/04/12 16:25:17;;;;;;;;;;;23.60;1.00;;;;;;5441276;26;19941;-81
2024/04/12 16:27:42;;;;;;;;;;;23.60;1.00;;;;;;5419106;26;19960;-82
2024/04/12 16:30:08;;;;;;;;;;;23.70;1.00;;;;;;5419273;26;19936;-81
2024/04/12 16:32:34;;;;;;;;;;;23.60;1.00;;;;;;5418976;26;20002;-81
2024/04/12 16:34:59;;;;;;;;;;;23.60;1.00;;;;;;5422029;26;19929;-81
2024/04/12 16:37:25;;;;;;;;;;;24.30;1.00;;;;;;5424565;26;19935;-81
2024/04/12 16:40:02;;;;;;;;;;;26.00;1.00;;;;;;5417451;26;19940;-82
2024/04/12 16:42:28;;;;;;;;;;;26.50;1.00;;;;;;5409025;26;19936;-81
2024/04/12 16:44:53;;;;;;;;;;;26.60;1.00;;;;;;5404827;26;19953;-81
2024/04/12 16:47:20;;;;;;;;;;;25.90;1.00;;;;;;5403158;26;19932;-82
2024/04/12 16:49:46;;;;;;;;;;;25.50;1.00;;;;;;5415171;26;20368;-80
2024/04/12 16:52:11;;;;;;;;;;;25.30;1.00;;;;;;5415925;26;19929;-80
2024/04/12 16:54:37;;;;;;;;;;;24.70;1.00;;;;;;5395038;26;19979;-77
2024/04/12 16:57:03;;;;;;;;;;;23.90;1.00;;;;;;5418077;26;19979;-77
2024/04/12 16:59:29;;;;;;;;;;;23.50;1.00;;;;;;5418550;26;19932;-77
2024/04/12 17:01:55;;;;;;;;;;;23.20;1.00;;;;;;5418432;26;19933;-76
2024/04/12 17:04:20;;;;;;;;;;;22.70;1.00;;;;;;5429459;26;19929;-76
2024/04/12 17:06:46;;;;;;;;;;;22.30;1.00;;;;;;5418421;26;19937;-75
2024/04/12 17:09:13;;;;;;;;;;;22.30;1.00;;;;;;5418897;26;19929;-81
2024/04/12 17:11:39;;;;;;;;;;;22.10;1.00;;;;;;5418601;26;19937;-80
2024/04/12 17:14:05;;;;;;;;;;;21.90;1.00;;;;;;5422642;26;19939;-80
2024/04/12 17:16:30;;;;;;;;;;;21.80;1.00;;;;;;5417267;26;19936;-80
2024/04/12 17:18:56;;;;;;;;;;;21.70;1.00;;;;;;5418293;26;20326;-80